Aviation Digital Data Service (ADDS)

Output produced by METARs form (1725 UTC 03 June 2020)
found at http://www.aviationweather.gov/metar/data/
 
Forecast for: LMML (LUQA/MALTA , MT)
Text: TAF LMML 031100Z 0312/0412 22005KT 9999 FEW025
Forecast period: 1200 UTC 03 June 2020 to 0000 UTC 04 June 2020
Forecast type: FROM: standard forecast or significant change
Winds: from the SW (220 degrees) at 6 MPH (5 knots; 2.6 m/s)
Visibility: 6 or more miles 10+ km)
Ceiling: at least 12,000 feet AGL
Clouds: few clouds at 2500 feet AGL
Weather: no significant weather forecast for this period
Text: PROB40 0320/0406 BKN012
Forecast period: 2000 UTC 03 June 2020 to 0600 UTC 04 June 2020
Forecast type: PROBABLE: 40 percent likelihood of the following during this time
Visibility: missing
Ceiling: 1200 feet AGL
Clouds: broken clouds at 1200 feet AGL
Weather: no significant weather forecast for this period
Text: BECMG 0400/0403 16012KT
Forecast period: 0000 to 1200 UTC 04 June 2020
Forecast type: BECOMING: Conditions expected to become as follows by 0300 UTC 04 June 2020
Winds: from the SSE (160 degrees) at 14 MPH (12 knots; 6.2 m/s)
Visibility: 6 or more miles 10+ km)
Ceiling: at least 12,000 feet AGL
Clouds: few clouds at 2500 feet AGL
Weather: no significant weather forecast for this period